DENIK EDGS-EDWI
Flight info
| Callsign | DENIK |
|---|---|
| Flight time | 1h 3m |
| Altitude | 18000 |
| Route | ARPEG2N ARPEG Z850 HMM/N0196F190 Z529 SUQIF M105 REVLA/VFR |
| Aircraft | BT36/L-BDFGLORY/S |
Departure
| Time | 2026-05-04 18:14 |
|---|---|
| Airport | Siegerland Airport (EDGS) |
Arrival
| Time | 2026-05-04 19:17 |
|---|---|
| Airport | JadeWeser Airport (EDWI) |
| Time | Latitude | Longitude | Altitude | Speed | Heading |
|---|---|---|---|---|---|
| 2026-05-04 18:03 | 50.70808 | 8.07741 | 1972 ft | 0 kts | 33° |
| 2026-05-04 18:09 | 50.70809 | 8.07743 | 1972 ft | 1 kts | 36° |
| 2026-05-04 18:10 | 50.70761 | 8.07879 | 1971 ft | 22 kts | 128° |
| 2026-05-04 18:10 | 50.70678 | 8.08049 | 1957 ft | 35 kts | 128° |
| 2026-05-04 18:10 | 50.70530 | 8.08348 | 1946 ft | 33 kts | 128° |
| 2026-05-04 18:10 | 50.70388 | 8.08630 | 1933 ft | 28 kts | 128° |
| 2026-05-04 18:11 | 50.70309 | 8.08851 | 1930 ft | 18 kts | 58° |
| 2026-05-04 18:11 | 50.70327 | 8.08879 | 1935 ft | 0 kts | 36° |
| 2026-05-04 18:13 | 50.70328 | 8.08880 | 1935 ft | 2 kts | 37° |
| 2026-05-04 18:13 | 50.70453 | 8.08924 | 1947 ft | 0 kts | 307° |
| 2026-05-04 18:14 | 50.70526 | 8.08778 | 1943 ft | 59 kts | 308° |
| 2026-05-04 18:14 | 50.70879 | 8.08066 | 2188 ft | 91 kts | 310° |
| 2026-05-04 18:14 | 50.71332 | 8.07249 | 2636 ft | 104 kts | 313° |
| 2026-05-04 18:15 | 50.72331 | 8.05306 | 3456 ft | 118 kts | 308° |
| 2026-05-04 18:15 | 50.73443 | 8.03175 | 4318 ft | 136 kts | 307° |
| 2026-05-04 18:15 | 50.74053 | 8.01998 | 4756 ft | 143 kts | 306° |
| 2026-05-04 18:16 | 50.74705 | 8.00775 | 5189 ft | 148 kts | 312° |
| 2026-05-04 18:16 | 50.75693 | 8.00227 | 5619 ft | 160 kts | 4° |
| 2026-05-04 18:16 | 50.76652 | 8.01082 | 5987 ft | 170 kts | 53° |
| 2026-05-04 18:17 | 50.77833 | 8.04662 | 6009 ft | 194 kts | 53° |
| 2026-05-04 18:17 | 50.78876 | 8.06099 | 6010 ft | 200 kts | 34° |
| 2026-05-04 18:17 | 50.81244 | 8.08517 | 6005 ft | 204 kts | 34° |
| 2026-05-04 18:18 | 50.82408 | 8.09773 | 6009 ft | 203 kts | 34° |
| 2026-05-04 18:18 | 50.83585 | 8.11050 | 6008 ft | 204 kts | 34° |
| 2026-05-04 18:18 | 50.84746 | 8.12301 | 6003 ft | 204 kts | 34° |
| 2026-05-04 18:18 | 50.85924 | 8.13572 | 6007 ft | 204 kts | 34° |
| 2026-05-04 18:19 | 50.88269 | 8.16106 | 6002 ft | 204 kts | 34° |
| 2026-05-04 18:19 | 50.89448 | 8.17381 | 6007 ft | 204 kts | 34° |
| 2026-05-04 18:19 | 50.90608 | 8.18636 | 6005 ft | 204 kts | 34° |
| 2026-05-04 18:20 | 50.91787 | 8.19913 | 6004 ft | 205 kts | 34° |
| 2026-05-04 18:20 | 50.92966 | 8.21185 | 6001 ft | 205 kts | 34° |
| 2026-05-04 18:20 | 50.94148 | 8.22465 | 6000 ft | 204 kts | 34° |
| 2026-05-04 18:20 | 50.95296 | 8.23716 | 5999 ft | 198 kts | 34° |
| 2026-05-04 18:21 | 50.96409 | 8.24927 | 5988 ft | 190 kts | 34° |
| 2026-05-04 18:21 | 50.97486 | 8.26093 | 5983 ft | 187 kts | 34° |
| 2026-05-04 18:21 | 50.98561 | 8.27262 | 5983 ft | 187 kts | 34° |
| 2026-05-04 18:21 | 50.99631 | 8.28424 | 5986 ft | 186 kts | 34° |
| 2026-05-04 18:22 | 51.00710 | 8.29527 | 5984 ft | 185 kts | 24° |
| 2026-05-04 18:22 | 51.01955 | 8.29956 | 5981 ft | 182 kts | 358° |
| 2026-05-04 18:22 | 51.03191 | 8.29573 | 5984 ft | 183 kts | 333° |
| 2026-05-04 18:22 | 51.04355 | 8.28746 | 5991 ft | 187 kts | 332° |
| 2026-05-04 18:23 | 51.05556 | 8.27911 | 5999 ft | 189 kts | 332° |
| 2026-05-04 18:23 | 51.06751 | 8.27077 | 5997 ft | 190 kts | 332° |
| 2026-05-04 18:23 | 51.07965 | 8.26229 | 6000 ft | 190 kts | 332° |
| 2026-05-04 18:23 | 51.09185 | 8.25375 | 5998 ft | 190 kts | 332° |
| 2026-05-04 18:24 | 51.10400 | 8.24522 | 5998 ft | 191 kts | 332° |
| 2026-05-04 18:24 | 51.11598 | 8.23685 | 5996 ft | 189 kts | 332° |
| 2026-05-04 18:24 | 51.12798 | 8.22843 | 6001 ft | 188 kts | 332° |
| 2026-05-04 18:24 | 51.14003 | 8.21998 | 6002 ft | 190 kts | 332° |
| 2026-05-04 18:25 | 51.15205 | 8.21155 | 5998 ft | 191 kts | 332° |
| 2026-05-04 18:25 | 51.16429 | 8.20296 | 6000 ft | 191 kts | 332° |
| 2026-05-04 18:25 | 51.17650 | 8.19436 | 6000 ft | 191 kts | 332° |
| 2026-05-04 18:25 | 51.18859 | 8.18587 | 5998 ft | 191 kts | 332° |
| 2026-05-04 18:26 | 51.20083 | 8.17727 | 6000 ft | 191 kts | 332° |
| 2026-05-04 18:26 | 51.21287 | 8.16879 | 6001 ft | 191 kts | 332° |
| 2026-05-04 18:26 | 51.22520 | 8.16011 | 5998 ft | 192 kts | 332° |
| 2026-05-04 18:26 | 51.23730 | 8.15157 | 5997 ft | 191 kts | 332° |
| 2026-05-04 18:27 | 51.24953 | 8.14295 | 5998 ft | 192 kts | 332° |
| 2026-05-04 18:27 | 51.26176 | 8.13433 | 5999 ft | 191 kts | 332° |
| 2026-05-04 18:27 | 51.27384 | 8.12580 | 5998 ft | 192 kts | 332° |
| 2026-05-04 18:27 | 51.28610 | 8.11715 | 5996 ft | 191 kts | 332° |
| 2026-05-04 18:28 | 51.29811 | 8.10865 | 6000 ft | 190 kts | 332° |
| 2026-05-04 18:28 | 51.31024 | 8.10007 | 5993 ft | 190 kts | 332° |
| 2026-05-04 18:28 | 51.32232 | 8.09154 | 5994 ft | 190 kts | 332° |
| 2026-05-04 18:28 | 51.33439 | 8.08299 | 5996 ft | 190 kts | 332° |
| 2026-05-04 18:29 | 51.34658 | 8.07435 | 5994 ft | 191 kts | 332° |
| 2026-05-04 18:29 | 51.35872 | 8.06575 | 5998 ft | 191 kts | 332° |
| 2026-05-04 18:29 | 51.37080 | 8.05718 | 5995 ft | 192 kts | 332° |
| 2026-05-04 18:29 | 51.38303 | 8.04851 | 5992 ft | 191 kts | 332° |
| 2026-05-04 18:30 | 51.40723 | 8.03131 | 5989 ft | 190 kts | 333° |
| 2026-05-04 18:30 | 51.41931 | 8.02273 | 5992 ft | 190 kts | 333° |
| 2026-05-04 18:30 | 51.43134 | 8.01418 | 5990 ft | 190 kts | 332° |
| 2026-05-04 18:31 | 51.44347 | 8.00554 | 5988 ft | 191 kts | 332° |
| 2026-05-04 18:31 | 51.45555 | 7.99694 | 5985 ft | 191 kts | 333° |
| 2026-05-04 18:31 | 51.46769 | 7.98829 | 5987 ft | 190 kts | 333° |
| 2026-05-04 18:31 | 51.47989 | 7.97960 | 5989 ft | 191 kts | 333° |
| 2026-05-04 18:32 | 51.49191 | 7.97103 | 5985 ft | 191 kts | 333° |
| 2026-05-04 18:32 | 51.50406 | 7.96235 | 5986 ft | 191 kts | 333° |
| 2026-05-04 18:32 | 51.51615 | 7.95372 | 5986 ft | 191 kts | 333° |
| 2026-05-04 18:32 | 51.52834 | 7.94500 | 5986 ft | 191 kts | 333° |
| 2026-05-04 18:33 | 51.54051 | 7.93632 | 5984 ft | 191 kts | 333° |
| 2026-05-04 18:33 | 51.55271 | 7.92757 | 5985 ft | 191 kts | 333° |
| 2026-05-04 18:33 | 51.56472 | 7.91897 | 5987 ft | 191 kts | 333° |
| 2026-05-04 18:33 | 51.57691 | 7.91031 | 5983 ft | 191 kts | 335° |
| 2026-05-04 18:34 | 51.59014 | 7.90898 | 5969 ft | 195 kts | 15° |
| 2026-05-04 18:34 | 51.60189 | 7.91942 | 5975 ft | 196 kts | 34° |
| 2026-05-04 18:34 | 51.61313 | 7.93198 | 5978 ft | 196 kts | 35° |
| 2026-05-04 18:34 | 51.62441 | 7.94454 | 5981 ft | 196 kts | 34° |
| 2026-05-04 18:35 | 51.63569 | 7.95650 | 5982 ft | 196 kts | 33° |
| 2026-05-04 18:35 | 51.64712 | 7.96858 | 5981 ft | 195 kts | 33° |
| 2026-05-04 18:35 | 51.65853 | 7.98061 | 5979 ft | 195 kts | 33° |
| 2026-05-04 18:35 | 51.66981 | 7.99252 | 5981 ft | 195 kts | 33° |
| 2026-05-04 18:36 | 51.68124 | 8.00453 | 5980 ft | 195 kts | 33° |
| 2026-05-04 18:36 | 51.69248 | 8.01637 | 5982 ft | 195 kts | 33° |
| 2026-05-04 18:36 | 51.70391 | 8.02844 | 5982 ft | 195 kts | 33° |
| 2026-05-04 18:36 | 51.71500 | 8.04017 | 6140 ft | 187 kts | 33° |
| 2026-05-04 18:37 | 51.72626 | 8.05206 | 5966 ft | 199 kts | 33° |
| 2026-05-04 18:37 | 51.73799 | 8.06449 | 5711 ft | 202 kts | 33° |
| 2026-05-04 18:37 | 51.74967 | 8.07686 | 5458 ft | 203 kts | 33° |
| 2026-05-04 18:37 | 51.76151 | 8.08944 | 5210 ft | 202 kts | 33° |
| 2026-05-04 18:38 | 51.77303 | 8.10178 | 4952 ft | 194 kts | 33° |
| 2026-05-04 18:38 | 51.78399 | 8.11353 | 4710 ft | 190 kts | 33° |
| 2026-05-04 18:38 | 51.79497 | 8.12534 | 4450 ft | 188 kts | 33° |
| 2026-05-04 18:38 | 51.80572 | 8.13688 | 4193 ft | 186 kts | 33° |
| 2026-05-04 18:39 | 51.81647 | 8.14846 | 3936 ft | 184 kts | 33° |
| 2026-05-04 18:39 | 51.82714 | 8.15989 | 3680 ft | 183 kts | 31° |
| 2026-05-04 18:39 | 51.83920 | 8.16416 | 3417 ft | 178 kts | 349° |
| 2026-05-04 18:39 | 51.85032 | 8.15647 | 3174 ft | 174 kts | 328° |
| 2026-05-04 18:40 | 51.86084 | 8.14666 | 2982 ft | 169 kts | 328° |
| 2026-05-04 18:40 | 51.87063 | 8.13742 | 2964 ft | 158 kts | 327° |
| 2026-05-04 18:40 | 51.87992 | 8.12866 | 2964 ft | 152 kts | 328° |
| 2026-05-04 18:40 | 51.88908 | 8.11989 | 2797 ft | 159 kts | 328° |
| 2026-05-04 18:41 | 51.89877 | 8.11054 | 2524 ft | 164 kts | 328° |
| 2026-05-04 18:41 | 51.90823 | 8.10105 | 2513 ft | 155 kts | 327° |
| 2026-05-04 18:41 | 51.91720 | 8.09201 | 2508 ft | 150 kts | 327° |
| 2026-05-04 18:41 | 51.92601 | 8.08313 | 2502 ft | 147 kts | 327° |
| 2026-05-04 18:42 | 51.93462 | 8.07444 | 2497 ft | 145 kts | 327° |
| 2026-05-04 18:42 | 51.94307 | 8.06591 | 2497 ft | 143 kts | 327° |
| 2026-05-04 18:42 | 51.95273 | 8.06105 | 2505 ft | 157 kts | 358° |
| 2026-05-04 18:42 | 51.96407 | 8.06107 | 2518 ft | 166 kts | 359° |
| 2026-05-04 18:43 | 51.97584 | 8.06108 | 2517 ft | 171 kts | 359° |
| 2026-05-04 18:43 | 51.98779 | 8.06110 | 2518 ft | 174 kts | 359° |
| 2026-05-04 18:43 | 51.99995 | 8.06112 | 2513 ft | 175 kts | 359° |
| 2026-05-04 18:43 | 52.01225 | 8.06113 | 2518 ft | 176 kts | 359° |
| 2026-05-04 18:44 | 52.02452 | 8.06115 | 2516 ft | 176 kts | 359° |
| 2026-05-04 18:44 | 52.02852 | 8.06115 | 2517 ft | 176 kts | 359° |
| 2026-05-04 18:44 | 52.04912 | 8.06118 | 2516 ft | 176 kts | 359° |
| 2026-05-04 18:44 | 52.06140 | 8.06121 | 2516 ft | 177 kts | 359° |
| 2026-05-04 18:45 | 52.06954 | 8.06122 | 2517 ft | 177 kts | 359° |
| 2026-05-04 18:45 | 52.08139 | 8.06124 | 2517 ft | 177 kts | 359° |
| 2026-05-04 18:45 | 52.09367 | 8.06128 | 2517 ft | 177 kts | 359° |
| 2026-05-04 18:45 | 52.10582 | 8.06129 | 2514 ft | 177 kts | 359° |
| 2026-05-04 18:46 | 52.11813 | 8.06130 | 2517 ft | 177 kts | 359° |
| 2026-05-04 18:46 | 52.13044 | 8.06132 | 2514 ft | 177 kts | 359° |
| 2026-05-04 18:46 | 52.14273 | 8.06134 | 2516 ft | 177 kts | 359° |
| 2026-05-04 18:46 | 52.15504 | 8.06135 | 2517 ft | 177 kts | 359° |
| 2026-05-04 18:47 | 52.16733 | 8.06137 | 2516 ft | 177 kts | 359° |
| 2026-05-04 18:47 | 52.17961 | 8.06138 | 2515 ft | 176 kts | 359° |
| 2026-05-04 18:47 | 52.19190 | 8.06139 | 2516 ft | 176 kts | 359° |
| 2026-05-04 18:47 | 52.20416 | 8.06142 | 2516 ft | 176 kts | 359° |
| 2026-05-04 18:48 | 52.21645 | 8.06143 | 2511 ft | 176 kts | 359° |
| 2026-05-04 18:48 | 52.22875 | 8.06146 | 2516 ft | 177 kts | 359° |
| 2026-05-04 18:48 | 52.24105 | 8.06148 | 2515 ft | 177 kts | 359° |
| 2026-05-04 18:48 | 52.25335 | 8.06150 | 2515 ft | 177 kts | 359° |
| 2026-05-04 18:49 | 52.26565 | 8.06152 | 2516 ft | 177 kts | 359° |
| 2026-05-04 18:49 | 52.27794 | 8.06155 | 2512 ft | 177 kts | 359° |
| 2026-05-04 18:49 | 52.29026 | 8.06157 | 2515 ft | 177 kts | 359° |
| 2026-05-04 18:49 | 52.30255 | 8.06158 | 2511 ft | 177 kts | 359° |
| 2026-05-04 18:50 | 52.31485 | 8.06160 | 2515 ft | 177 kts | 359° |
| 2026-05-04 18:50 | 52.32714 | 8.06161 | 2515 ft | 177 kts | 359° |
| 2026-05-04 18:50 | 52.33946 | 8.06163 | 2516 ft | 177 kts | 359° |
| 2026-05-04 18:50 | 52.35174 | 8.06165 | 2516 ft | 177 kts | 359° |
| 2026-05-04 18:51 | 52.36403 | 8.06167 | 2516 ft | 177 kts | 359° |
| 2026-05-04 18:51 | 52.37633 | 8.06169 | 2516 ft | 177 kts | 359° |
| 2026-05-04 18:51 | 52.38797 | 8.06170 | 2516 ft | 177 kts | 359° |
| 2026-05-04 18:51 | 52.40028 | 8.06172 | 2516 ft | 177 kts | 359° |
| 2026-05-04 18:52 | 52.41252 | 8.06173 | 2516 ft | 177 kts | 359° |
| 2026-05-04 18:52 | 52.42486 | 8.06175 | 2513 ft | 177 kts | 359° |
| 2026-05-04 18:52 | 52.43720 | 8.06175 | 2506 ft | 180 kts | 0° |
| 2026-05-04 18:52 | 52.44985 | 8.06150 | 2477 ft | 182 kts | 359° |
| 2026-05-04 18:53 | 52.46247 | 8.06118 | 2474 ft | 181 kts | 359° |
| 2026-05-04 18:53 | 52.47504 | 8.06085 | 2479 ft | 181 kts | 360° |
| 2026-05-04 18:53 | 52.48760 | 8.06046 | 2482 ft | 181 kts | 360° |
| 2026-05-04 18:53 | 52.50016 | 8.06000 | 2484 ft | 180 kts | 359° |
| 2026-05-04 18:54 | 52.50845 | 8.05968 | 2475 ft | 180 kts | 360° |
| 2026-05-04 18:54 | 52.52094 | 8.05917 | 2479 ft | 179 kts | 360° |
| 2026-05-04 18:54 | 52.53340 | 8.05862 | 2479 ft | 179 kts | 359° |
| 2026-05-04 18:54 | 52.54581 | 8.05806 | 2482 ft | 178 kts | 359° |
| 2026-05-04 18:55 | 52.55822 | 8.05746 | 2478 ft | 179 kts | 359° |
| 2026-05-04 18:55 | 52.58308 | 8.05625 | 2475 ft | 179 kts | 359° |
| 2026-05-04 18:55 | 52.59552 | 8.05563 | 2472 ft | 179 kts | 359° |
| 2026-05-04 18:56 | 52.60795 | 8.05496 | 2482 ft | 179 kts | 360° |
| 2026-05-04 18:56 | 52.62038 | 8.05430 | 2477 ft | 179 kts | 359° |
| 2026-05-04 18:56 | 52.63280 | 8.05358 | 2479 ft | 179 kts | 360° |
| 2026-05-04 18:56 | 52.64520 | 8.05281 | 2470 ft | 178 kts | 359° |
| 2026-05-04 18:57 | 52.65755 | 8.05201 | 2469 ft | 177 kts | 359° |
| 2026-05-04 18:57 | 52.66990 | 8.05125 | 2478 ft | 178 kts | 359° |
| 2026-05-04 18:57 | 52.68224 | 8.05050 | 2475 ft | 177 kts | 359° |
| 2026-05-04 18:57 | 52.69455 | 8.04976 | 2472 ft | 177 kts | 360° |
| 2026-05-04 18:58 | 52.70688 | 8.04902 | 2475 ft | 177 kts | 359° |
| 2026-05-04 18:58 | 52.71922 | 8.04835 | 2476 ft | 178 kts | 359° |
| 2026-05-04 18:58 | 52.73158 | 8.04765 | 2476 ft | 178 kts | 359° |
| 2026-05-04 18:58 | 52.74209 | 8.04706 | 2473 ft | 178 kts | 359° |
| 2026-05-04 18:59 | 52.75027 | 8.04661 | 2474 ft | 178 kts | 359° |
| 2026-05-04 19:00 | 52.75658 | 8.04633 | 2470 ft | 177 kts | 2° |
| 2026-05-04 19:00 | 52.76832 | 8.05168 | 2465 ft | 175 kts | 21° |
| 2026-05-04 19:00 | 52.78015 | 8.05681 | 2468 ft | 176 kts | 14° |
| 2026-05-04 19:01 | 52.79211 | 8.06135 | 2472 ft | 177 kts | 14° |
| 2026-05-04 19:01 | 52.80411 | 8.06601 | 2474 ft | 177 kts | 14° |
| 2026-05-04 19:01 | 52.81612 | 8.07069 | 2475 ft | 178 kts | 14° |
| 2026-05-04 19:01 | 52.82816 | 8.07541 | 2474 ft | 178 kts | 14° |
| 2026-05-04 19:02 | 52.84018 | 8.08015 | 2471 ft | 178 kts | 14° |
| 2026-05-04 19:02 | 52.85220 | 8.08487 | 2472 ft | 177 kts | 14° |
| 2026-05-04 19:02 | 52.86421 | 8.08957 | 2475 ft | 177 kts | 14° |
| 2026-05-04 19:02 | 52.87620 | 8.09433 | 2475 ft | 177 kts | 14° |
| 2026-05-04 19:03 | 52.88819 | 8.09909 | 2473 ft | 178 kts | 14° |
| 2026-05-04 19:03 | 52.90023 | 8.10386 | 2481 ft | 178 kts | 14° |
| 2026-05-04 19:03 | 52.91229 | 8.10868 | 2480 ft | 178 kts | 14° |
| 2026-05-04 19:03 | 52.92435 | 8.11350 | 2475 ft | 178 kts | 14° |
| 2026-05-04 19:04 | 52.93641 | 8.11832 | 2477 ft | 178 kts | 14° |
| 2026-05-04 19:04 | 52.94845 | 8.12313 | 2481 ft | 178 kts | 14° |
| 2026-05-04 19:04 | 52.96051 | 8.12797 | 2481 ft | 178 kts | 14° |
| 2026-05-04 19:04 | 52.97254 | 8.13286 | 2485 ft | 178 kts | 14° |
| 2026-05-04 19:05 | 52.98459 | 8.13776 | 2484 ft | 178 kts | 14° |
| 2026-05-04 19:05 | 52.99663 | 8.14269 | 2480 ft | 178 kts | 14° |
| 2026-05-04 19:05 | 53.00870 | 8.14734 | 2482 ft | 178 kts | 9° |
| 2026-05-04 19:05 | 53.02100 | 8.14927 | 2489 ft | 178 kts | 5° |
| 2026-05-04 19:06 | 53.03336 | 8.15077 | 2483 ft | 178 kts | 4° |
| 2026-05-04 19:06 | 53.04571 | 8.15226 | 2488 ft | 178 kts | 4° |
| 2026-05-04 19:06 | 53.05804 | 8.15377 | 2484 ft | 178 kts | 5° |
| 2026-05-04 19:06 | 53.07038 | 8.15530 | 2479 ft | 178 kts | 4° |
| 2026-05-04 19:07 | 53.08254 | 8.15687 | 2485 ft | 178 kts | 4° |
| 2026-05-04 19:07 | 53.09504 | 8.15848 | 2490 ft | 178 kts | 4° |
| 2026-05-04 19:07 | 53.10722 | 8.15956 | 2483 ft | 178 kts | 358° |
| 2026-05-04 19:07 | 53.11950 | 8.15765 | 2484 ft | 177 kts | 353° |
| 2026-05-04 19:08 | 53.13178 | 8.15539 | 2486 ft | 177 kts | 353° |
| 2026-05-04 19:08 | 53.14402 | 8.15315 | 2486 ft | 177 kts | 353° |
| 2026-05-04 19:08 | 53.15628 | 8.15092 | 2491 ft | 177 kts | 353° |
| 2026-05-04 19:08 | 53.16853 | 8.14870 | 2491 ft | 177 kts | 353° |
| 2026-05-04 19:09 | 53.18074 | 8.14650 | 2487 ft | 177 kts | 353° |
| 2026-05-04 19:09 | 53.19297 | 8.14430 | 2484 ft | 177 kts | 353° |
| 2026-05-04 19:09 | 53.20519 | 8.14209 | 2490 ft | 177 kts | 353° |
| 2026-05-04 19:09 | 53.21743 | 8.13990 | 2491 ft | 177 kts | 353° |
| 2026-05-04 19:10 | 53.22967 | 8.13774 | 2491 ft | 177 kts | 353° |
| 2026-05-04 19:10 | 53.24188 | 8.13562 | 2498 ft | 177 kts | 353° |
| 2026-05-04 19:10 | 53.25411 | 8.13353 | 2492 ft | 177 kts | 353° |
| 2026-05-04 19:10 | 53.26637 | 8.13146 | 2459 ft | 179 kts | 353° |
| 2026-05-04 19:11 | 53.27895 | 8.12935 | 2308 ft | 183 kts | 353° |
| 2026-05-04 19:11 | 53.29159 | 8.12719 | 2159 ft | 184 kts | 353° |
| 2026-05-04 19:11 | 53.30444 | 8.12496 | 2016 ft | 184 kts | 353° |
| 2026-05-04 19:11 | 53.31708 | 8.12275 | 2001 ft | 179 kts | 353° |
| 2026-05-04 19:12 | 53.32925 | 8.12059 | 2005 ft | 176 kts | 353° |
| 2026-05-04 19:12 | 53.35260 | 8.11657 | 1991 ft | 162 kts | 353° |
| 2026-05-04 19:12 | 53.36375 | 8.11524 | 1946 ft | 159 kts | 359° |
| 2026-05-04 19:13 | 53.37456 | 8.11692 | 1960 ft | 156 kts | 5° |
| 2026-05-04 19:13 | 53.38530 | 8.11928 | 1963 ft | 150 kts | 8° |
| 2026-05-04 19:13 | 53.39529 | 8.12279 | 1905 ft | 145 kts | 11° |
| 2026-05-04 19:13 | 53.40481 | 8.12701 | 1927 ft | 136 kts | 13° |
| 2026-05-04 19:14 | 53.41374 | 8.13080 | 1912 ft | 131 kts | 2° |
| 2026-05-04 19:14 | 53.42206 | 8.12713 | 1826 ft | 123 kts | 330° |
| 2026-05-04 19:14 | 53.42969 | 8.12049 | 1582 ft | 126 kts | 333° |
| 2026-05-04 19:14 | 53.43677 | 8.11281 | 1398 ft | 117 kts | 326° |
| 2026-05-04 19:15 | 53.44347 | 8.10519 | 1253 ft | 116 kts | 327° |
| 2026-05-04 19:15 | 53.44996 | 8.09718 | 1086 ft | 118 kts | 325° |
| 2026-05-04 19:15 | 53.45649 | 8.08873 | 927 ft | 116 kts | 326° |
| 2026-05-04 19:15 | 53.46319 | 8.08190 | 813 ft | 112 kts | 335° |
| 2026-05-04 19:16 | 53.47022 | 8.07650 | 667 ft | 108 kts | 340° |
| 2026-05-04 19:16 | 53.47685 | 8.07191 | 522 ft | 101 kts | 338° |
| 2026-05-04 19:16 | 53.48273 | 8.06749 | 398 ft | 85 kts | 339° |
| 2026-05-04 19:16 | 53.48811 | 8.06334 | 307 ft | 87 kts | 337° |
| 2026-05-04 19:17 | 53.49377 | 8.05902 | 226 ft | 88 kts | 338° |
| 2026-05-04 19:17 | 53.49926 | 8.05480 | 97 ft | 84 kts | 339° |
| 2026-05-04 19:17 | 53.50367 | 8.05148 | 35 ft | 49 kts | 335° |
| 2026-05-04 19:17 | 53.50542 | 8.05033 | 33 ft | 23 kts | 8° |
| 2026-05-04 19:18 | 53.50648 | 8.05136 | 33 ft | 8 kts | 85° |
| 2026-05-04 19:18 | 53.50675 | 8.05181 | 33 ft | 6 kts | 88° |
| 2026-05-04 19:18 | 53.50667 | 8.05206 | 33 ft | 0 kts | 165° |